Amery, Wisconsin
Current Conditions -  °F | °C
As of 2:55 AM on Wednesday 28 Jan 2015 (Local Time) from KRNH Reporting Station
Overcast Overcast  
Wind Chill: -8°   Ceiling: 1100
Heat Index: -3°   Visibility: 10mi
Dew Point: -5°   Wind: 12mph
Humidity: 86%   Direction: 160°SSE
Pressure: 30.09"   Gusts: 16mph
Location:  45.31°N, 92.36°W
Report Text: KRNH 280855Z AUTO 16010G14KT 10SM OVC011 M03/M05 A3009 RMK AO2 T10261047
Loading
Personal Weather Stations






























Interactive Weather Map New forecast layout! Learn more

10-Day Weather Forecast

Advertisements
Track Severe Weather on mobile